Time;durP1;ratioP1;P1;durP2;ratioP2;P2;SDS_P1;SDS_P2;PMS_P1;PMS_P2;Temp;Humidity;BMP_temperature;BMP_pressure;BME280_temperature;BME280_humidity;BME280_pressure;Samples;Min_cycle;Max_cycle;Signal;HPM_P1;HPM_P2
2023/01/13 00:02:23;;;;;;;5.13;4.72;;;3.70;99.90;;;;;;5057936;28;20191;-79
2023/01/13 00:04:50;;;;;;;4.65;4.35;;;3.70;99.90;;;;;;5058744;28;21071;-79
2023/01/13 00:07:17;;;;;;;4.78;4.38;;;3.70;99.90;;;;;;5061961;28;20256;-77
2023/01/13 00:09:44;;;;;;;4.90;4.50;;;3.70;99.90;;;;;;5061758;28;20222;-75
2023/01/13 00:12:11;;;;;;;5.05;4.65;;;3.70;99.90;;;;;;5059689;28;20205;-74
2023/01/13 00:14:38;;;;;;;4.45;4.15;;;3.70;99.90;;;;;;5060578;28;20222;-76
2023/01/13 00:17:07;;;;;;;4.70;4.30;;;3.70;99.90;;;;;;5056419;28;20195;-72
2023/01/13 00:19:34;;;;;;;4.65;4.32;;;3.70;99.90;;;;;;5060909;28;20250;-74
2023/01/13 00:22:02;;;;;;;5.20;4.80;;;3.70;99.90;;;;;;5053936;28;20206;-74
2023/01/13 00:24:29;;;;;;;5.00;4.60;;;3.70;99.90;;;;;;5062194;28;20229;-73
2023/01/13 00:26:56;;;;;;;4.78;4.47;;;3.70;99.90;;;;;;5064817;28;20657;-79
2023/01/13 00:29:26;;;;;;;4.97;4.57;;;3.70;99.90;;;;;;5061958;28;20576;-77
2023/01/13 00:31:54;;;;;;;4.75;4.35;;;3.70;99.90;;;;;;5063527;28;20826;-75
2023/01/13 00:34:23;;;;;;;4.43;4.13;;;3.70;99.90;;;;;;5063609;28;20694;-77
2023/01/13 00:36:50;;;;;;;4.43;4.15;;;3.70;99.90;;;;;;5062385;28;21017;-77
2023/01/13 00:39:17;;;;;;;4.15;3.90;;;3.70;99.90;;;;;;5060754;28;20198;-75
2023/01/13 00:44:29;;;;;;;4.38;4.07;;;3.70;99.90;;;;;;5064461;28;20333;-75
2023/01/13 00:46:56;;;;;;;3.95;3.75;;;3.60;99.90;;;;;;5064534;28;20202;-73
2023/01/13 00:49:24;;;;;;;4.07;3.88;;;3.70;99.90;;;;;;5065082;28;20195;-73
2023/01/13 00:51:51;;;;;;;4.15;3.85;;;3.70;99.90;;;;;;5061083;28;20203;-74
2023/01/13 00:54:18;;;;;;;3.80;3.60;;;3.70;99.90;;;;;;5061773;28;20767;-77
2023/01/13 00:56:45;;;;;;;4.30;4.00;;;3.80;99.90;;;;;;5061746;28;20218;-76
2023/01/13 00:59:13;;;;;;;3.80;3.60;;;3.80;99.90;;;;;;5061228;28;20229;-75
2023/01/13 01:01:41;;;;;;;4.05;3.75;;;3.80;99.90;;;;;;5065188;28;20205;-77
2023/01/13 01:04:08;;;;;;;4.53;4.22;;;3.80;99.90;;;;;;5064532;28;20233;-74
2023/01/13 01:06:36;;;;;;;4.00;3.80;;;3.80;99.90;;;;;;5062132;28;20222;-73
2023/01/13 01:09:04;;;;;;;4.05;3.75;;;3.70;99.90;;;;;;5063397;28;20197;-76
2023/01/13 01:11:33;;;;;;;3.78;3.58;;;3.70;99.90;;;;;;5060912;28;20210;-77
2023/01/13 01:14:02;;;;;;;3.30;3.10;;;3.70;99.90;;;;;;5061203;28;20214;-76
2023/01/13 01:16:30;;;;;;;3.83;3.53;;;3.70;99.90;;;;;;5061817;28;20233;-75
2023/01/13 01:18:59;;;;;;;3.88;3.58;;;3.70;99.90;;;;;;5062997;28;20206;-74
2023/01/13 01:21:27;;;;;;;3.88;3.67;;;3.60;99.90;;;;;;5042661;28;20795;-76
2023/01/13 01:23:58;;;;;;;4.07;3.88;;;3.60;99.90;;;;;;5064243;28;20233;-74
2023/01/13 01:26:27;;;;;;;3.95;3.65;;;3.60;99.90;;;;;;5060174;28;20218;-76
2023/01/13 01:28:55;;;;;;;4.22;4.00;;;3.60;99.90;;;;;;5061477;28;20194;-77
2023/01/13 01:31:24;;;;;;;3.95;3.75;;;3.60;99.90;;;;;;5059387;28;20258;-75
2023/01/13 01:33:51;;;;;;;4.32;4.03;;;3.60;99.90;;;;;;5058623;28;20717;-76
2023/01/13 01:36:21;;;;;;;4.20;3.90;;;3.60;99.90;;;;;;5059608;28;20663;-77
2023/01/13 01:38:48;;;;;;;4.13;3.92;;;3.50;99.90;;;;;;5062558;28;20220;-72
2023/01/13 01:41:19;;;;;;;3.70;3.50;;;3.50;99.90;;;;;;5062684;28;20222;-72
2023/01/13 01:44:05;;;;;;;3.75;3.55;;;3.50;99.90;;;;;;5065084;28;20202;-78
2023/01/13 01:46:35;;;;;;;4.00;3.70;;;3.40;99.90;;;;;;5062452;28;20600;-75
2023/01/13 01:49:12;;;;;;;3.85;3.60;;;3.40;99.90;;;;;;5064121;28;20198;-77
2023/01/13 01:51:45;;;;;;;3.80;3.60;;;3.40;99.90;;;;;;5060470;28;20241;-73
2023/01/13 01:54:15;;;;;;;4.35;4.00;;;3.30;99.90;;;;;;5063480;28;20229;-74
2023/01/13 01:56:45;;;;;;;4.38;4.07;;;3.30;99.90;;;;;;5063378;28;20225;-77
2023/01/13 01:59:13;;;;;;;4.57;4.28;;;3.30;99.90;;;;;;5057077;28;20253;-73
2023/01/13 02:01:41;;;;;;;4.28;4.05;;;3.20;99.90;;;;;;5062032;28;20606;-77
2023/01/13 02:04:13;;;;;;;4.00;3.70;;;3.20;99.90;;;;;;5059220;28;20272;-73
2023/01/13 02:06:42;;;;;;;3.65;3.45;;;3.20;99.90;;;;;;5064457;28;20201;-79
2023/01/13 02:09:10;;;;;;;3.70;3.50;;;3.20;99.90;;;;;;5057721;28;20205;-79
2023/01/13 02:14:26;;;;;;;4.07;3.78;;;3.20;99.90;;;;;;5061687;28;20241;-79
2023/01/13 02:17:07;;;;;;;4.00;3.80;;;3.20;99.90;;;;;;5060836;28;20194;-79
2023/01/13 02:20:13;;;;;;;3.60;3.40;;;3.30;99.90;;;;;;5062530;28;20213;-77
2023/01/13 02:24:52;;;;;;;3.78;3.47;;;3.20;99.90;;;;;;5063262;28;20680;-78
2023/01/13 02:26:22;;;;;;;3.78;3.53;;;3.20;99.90;;;;;;5063403;28;20619;-78
2023/01/13 02:32:04;;;;;;;3.60;3.40;;;3.20;99.90;;;;;;5040247;28;20694;-72
2023/01/13 02:34:37;;;;;;;4.35;4.03;;;3.20;99.90;;;;;;5064454;28;20221;-74
2023/01/13 02:37:09;;;;;;;3.92;3.72;;;3.20;99.90;;;;;;5067615;28;20198;-73
2023/01/13 02:39:41;;;;;;;3.63;3.33;;;3.10;99.90;;;;;;5059911;28;20225;-73
2023/01/13 02:45:03;;;;;;;4.00;3.80;;;3.10;99.90;;;;;;5062309;28;20262;-77
2023/01/13 02:47:36;;;;;;;3.58;3.38;;;3.10;99.90;;;;;;5065025;28;20207;-72
2023/01/13 02:50:09;;;;;;;3.53;3.33;;;3.10;99.90;;;;;;5065809;28;20238;-76
2023/01/13 02:52:40;;;;;;;4.03;3.72;;;3.10;99.90;;;;;;5064047;28;20203;-77
2023/01/13 02:55:12;;;;;;;3.97;3.67;;;3.10;99.90;;;;;;5064635;28;20222;-76
2023/01/13 02:57:41;;;;;;;3.63;3.30;;;3.10;99.90;;;;;;5063552;28;20680;-73
2023/01/13 03:00:12;;;;;;;3.92;3.63;;;3.10;99.90;;;;;;5064999;28;20218;-73
2023/01/13 03:02:40;;;;;;;3.80;3.50;;;3.00;99.90;;;;;;5065334;28;20803;-79
2023/01/13 03:05:08;;;;;;;4.00;3.80;;;3.00;99.90;;;;;;5062120;28;20221;-74
2023/01/13 03:07:54;;;;;;;3.75;3.55;;;3.00;99.90;;;;;;5065726;28;20190;-74
2023/01/13 03:10:43;;;;;;;4.00;3.75;;;3.00;99.90;;;;;;5060947;28;20318;-73
2023/01/13 03:13:31;;;;;;;3.90;3.67;;;3.00;99.90;;;;;;5060834;28;20195;-78
2023/01/13 03:16:08;;;;;;;3.95;3.65;;;2.90;99.90;;;;;;5063398;28;20251;-76
2023/01/13 03:18:42;;;;;;;3.58;3.38;;;2.90;99.90;;;;;;5063787;28;20218;-73
2023/01/13 03:21:15;;;;;;;3.70;3.50;;;2.90;99.90;;;;;;5061844;28;20217;-71
2023/01/13 03:23:50;;;;;;;3.22;3.03;;;3.00;99.90;;;;;;5065038;28;20859;-75
2023/01/13 03:26:24;;;;;;;3.63;3.40;;;2.90;99.90;;;;;;5061763;28;20329;-73
2023/01/13 03:28:56;;;;;;;3.55;3.35;;;3.00;99.90;;;;;;5063776;28;20251;-73
2023/01/13 03:31:28;;;;;;;3.30;3.10;;;3.00;99.90;;;;;;5056577;28;20695;-72
2023/01/13 03:34:00;;;;;;;3.50;3.30;;;3.00;99.90;;;;;;5064775;28;20239;-74
2023/01/13 03:36:30;;;;;;;3.67;3.47;;;3.00;99.90;;;;;;5066078;28;20230;-73
2023/01/13 03:39:01;;;;;;;3.70;3.47;;;3.00;99.90;;;;;;5064726;28;20277;-76
2023/01/13 03:41:33;;;;;;;3.65;3.45;;;2.90;99.90;;;;;;5062737;28;20226;-73
2023/01/13 03:44:23;;;;;;;3.90;3.70;;;2.90;99.90;;;;;;5065832;28;21306;-71
2023/01/13 03:47:01;;;;;;;3.97;3.78;;;2.90;99.90;;;;;;5063145;28;20222;-74
2023/01/13 03:49:36;;;;;;;3.97;3.67;;;2.90;99.90;;;;;;5060904;28;20551;-77
2023/01/13 03:52:07;;;;;;;4.07;3.67;;;2.90;99.90;;;;;;5061739;28;20194;-75
2023/01/13 03:54:39;;;;;;;4.40;4.10;;;2.90;99.90;;;;;;5061686;28;20229;-75
2023/01/13 03:57:11;;;;;;;3.92;3.63;;;2.90;99.90;;;;;;5064749;28;20221;-72
2023/01/13 03:59:42;;;;;;;3.80;3.58;;;2.90;99.90;;;;;;5062679;28;20233;-73
2023/01/13 04:02:14;;;;;;;3.70;3.50;;;2.90;99.90;;;;;;5065132;28;20203;-75
2023/01/13 04:04:47;;;;;;;3.70;3.50;;;2.90;99.90;;;;;;5065275;28;20228;-72
2023/01/13 04:07:23;;;;;;;3.70;3.50;;;2.90;99.90;;;;;;5062491;28;20197;-70
2023/01/13 04:09:52;;;;;;;3.35;3.15;;;2.90;99.90;;;;;;5061841;28;20226;-74
2023/01/13 04:12:26;;;;;;;3.75;3.45;;;2.90;99.90;;;;;;5060906;28;20925;-74
2023/01/13 04:14:54;;;;;;;3.95;3.75;;;2.90;99.90;;;;;;5061458;28;20222;-72
2023/01/13 04:17:23;;;;;;;3.97;3.67;;;2.90;99.90;;;;;;5060337;28;20225;-76
2023/01/13 04:19:51;;;;;;;3.70;3.50;;;2.90;99.90;;;;;;5060226;28;20222;-72
2023/01/13 04:22:18;;;;;;;4.00;3.78;;;2.90;99.90;;;;;;5064330;28;20198;-75
2023/01/13 04:24:45;;;;;;;4.50;4.20;;;2.90;99.90;;;;;;5063545;28;20225;-77
2023/01/13 04:27:12;;;;;;;4.57;4.28;;;2.90;99.90;;;;;;5064855;28;20198;-74
2023/01/13 04:29:39;;;;;;;4.05;3.75;;;2.90;99.90;;;;;;5063159;28;20221;-73
2023/01/13 04:32:06;;;;;;;3.72;3.53;;;2.90;99.90;;;;;;5062768;28;20264;-79
2023/01/13 04:34:33;;;;;;;3.50;3.30;;;2.90;99.90;;;;;;5061941;28;20230;-75
2023/01/13 04:37:02;;;;;;;4.03;3.83;;;2.90;99.90;;;;;;5066000;28;20218;-73
2023/01/13 04:39:29;;;;;;;3.95;3.75;;;2.90;99.90;;;;;;5063395;28;20233;-75
2023/01/13 04:41:58;;;;;;;3.75;3.55;;;2.90;99.90;;;;;;5058853;28;20195;-76
2023/01/13 04:44:26;;;;;;;3.55;3.35;;;2.90;99.90;;;;;;5060491;28;20233;-73
2023/01/13 04:46:53;;;;;;;4.00;3.70;;;2.90;99.90;;;;;;5064618;28;20214;-75
2023/01/13 04:49:20;;;;;;;4.13;3.83;;;2.90;99.90;;;;;;5062941;28;20256;-77
2023/01/13 04:51:47;;;;;;;4.07;3.78;;;2.80;99.90;;;;;;5060874;28;20198;-72
2023/01/13 04:54:16;;;;;;;3.88;3.67;;;2.70;99.90;;;;;;5064713;28;20214;-76
2023/01/13 04:56:43;;;;;;;4.15;3.85;;;2.70;99.90;;;;;;5065217;28;20218;-76
2023/01/13 04:59:10;;;;;;;4.88;4.47;;;2.70;99.90;;;;;;5059198;28;20210;-73
2023/01/13 05:01:38;;;;;;;3.85;3.60;;;2.70;99.90;;;;;;5063439;28;20198;-78
2023/01/13 05:04:05;;;;;;;3.72;3.53;;;2.70;99.90;;;;;;5065736;28;20214;-78
2023/01/13 05:06:33;;;;;;;3.83;3.63;;;2.80;99.90;;;;;;5062312;28;20236;-75
2023/01/13 05:09:00;;;;;;;3.90;3.70;;;2.80;99.90;;;;;;5065994;28;20198;-73
2023/01/13 05:17:10;;;;;;;3.90;3.67;;;2.80;99.90;;;;;;5004624;28;20714;-74
2023/01/13 05:19:39;;;;;;;4.43;4.13;;;2.80;99.90;;;;;;5052792;28;20229;-75
2023/01/13 05:27:36;;;;;;;4.43;4.13;;;2.80;99.90;;;;;;5064381;28;20270;-73
2023/01/13 05:30:04;;;;;;;4.25;3.85;;;2.80;99.90;;;;;;5067233;28;20221;-73
2023/01/13 05:32:32;;;;;;;4.20;3.90;;;2.80;99.90;;;;;;5069644;28;20209;-73
2023/01/13 05:34:59;;;;;;;3.63;3.33;;;2.80;99.90;;;;;;5062779;28;20223;-76
2023/01/13 05:37:26;;;;;;;4.05;3.75;;;2.80;99.90;;;;;;5066229;28;20217;-73
2023/01/13 05:45:32;;;;;;;4.30;4.00;;;2.80;99.90;;;;;;5022131;28;20594;-76
2023/01/13 05:47:59;;;;;;;4.05;3.75;;;2.90;99.90;;;;;;5067421;28;20202;-72
2023/01/13 05:50:26;;;;;;;4.35;4.05;;;2.80;99.90;;;;;;5062777;28;20572;-77
2023/01/13 05:52:53;;;;;;;4.57;4.18;;;2.80;99.90;;;;;;5062286;28;20194;-74
2023/01/13 05:55:20;;;;;;;4.05;3.75;;;2.80;99.90;;;;;;5061014;28;20215;-71
2023/01/13 05:57:48;;;;;;;4.47;4.18;;;2.90;99.90;;;;;;5067333;28;20223;-73
2023/01/13 06:00:16;;;;;;;4.43;4.03;;;2.90;99.90;;;;;;5065096;28;20218;-73
2023/01/13 06:02:44;;;;;;;5.07;4.65;;;2.90;99.90;;;;;;5063669;28;20217;-73
2023/01/13 06:05:11;;;;;;;4.70;4.40;;;2.80;99.90;;;;;;5063275;28;20229;-71
2023/01/13 06:07:38;;;;;;;4.35;3.75;;;2.80;99.90;;;;;;5062892;28;20244;-73
2023/01/13 06:10:05;;;;;;;4.32;4.00;;;2.90;99.90;;;;;;5063960;28;20218;-75
2023/01/13 06:12:32;;;;;;;4.65;4.35;;;2.90;99.90;;;;;;5063020;28;20202;-78
2023/01/13 06:15:01;;;;;;;4.82;4.53;;;2.90;99.90;;;;;;5063441;28;20226;-73
2023/01/13 06:17:28;;;;;;;4.90;4.60;;;2.90;99.90;;;;;;5062112;28;20575;-74
2023/01/13 06:19:55;;;;;;;4.40;4.00;;;2.90;99.90;;;;;;5063857;28;20301;-76
2023/01/13 06:22:25;;;;;;;4.63;4.22;;;2.90;99.90;;;;;;5065316;28;20213;-73
2023/01/13 06:24:53;;;;;;;5.00;4.60;;;2.90;99.90;;;;;;5063201;28;20229;-75
2023/01/13 06:27:21;;;;;;;5.13;4.72;;;2.90;99.90;;;;;;5057850;28;20202;-74
2023/01/13 06:29:49;;;;;;;5.20;4.82;;;2.90;99.90;;;;;;5059298;28;20214;-74
2023/01/13 06:32:20;;;;;;;5.57;5.18;;;2.80;99.90;;;;;;5065058;28;20209;-74
2023/01/13 06:34:51;;;;;;;5.90;5.40;;;2.80;99.90;;;;;;5055241;28;20221;-76
2023/01/13 06:37:24;;;;;;;5.20;4.80;;;2.80;99.90;;;;;;5061317;28;20704;-78
2023/01/13 06:39:51;;;;;;;4.55;4.25;;;2.80;99.90;;;;;;5057720;28;20217;-74
2023/01/13 06:45:04;;;;;;;5.47;5.07;;;2.80;99.90;;;;;;5055062;28;20308;-75
2023/01/13 06:47:32;;;;;;;5.82;5.43;;;2.80;99.90;;;;;;5061837;28;20195;-80
2023/01/13 06:49:59;;;;;;;5.22;4.80;;;2.80;99.90;;;;;;5053099;28;20216;-74
2023/01/13 06:52:29;;;;;;;5.38;4.95;;;2.80;99.90;;;;;;5060782;28;20724;-75
2023/01/13 06:54:56;;;;;;;5.13;4.72;;;2.70;99.90;;;;;;5060669;28;20221;-74
2023/01/13 06:57:24;;;;;;;4.78;4.47;;;2.70;99.90;;;;;;5057679;28;20219;-78
2023/01/13 06:59:51;;;;;;;4.80;4.45;;;2.70;99.90;;;;;;5058442;28;20227;-78
2023/01/13 07:02:18;;;;;;;4.85;4.55;;;2.70;99.90;;;;;;5059772;28;20710;-75
2023/01/13 07:04:47;;;;;;;4.20;3.90;;;2.70;99.90;;;;;;5062584;28;20233;-74
2023/01/13 07:07:16;;;;;;;4.82;4.50;;;2.70;99.90;;;;;;5058018;28;20656;-74
2023/01/13 07:09:43;;;;;;;4.65;4.35;;;2.80;99.90;;;;;;5055451;28;20230;-74
2023/01/13 07:12:10;;;;;;;4.03;3.83;;;2.80;99.90;;;;;;5061639;28;20556;-75
2023/01/13 07:17:23;;;;;;;3.92;3.63;;;2.80;99.90;;;;;;5057812;28;20228;-75
2023/01/13 07:19:52;;;;;;;3.97;3.78;;;2.80;99.90;;;;;;5059916;28;20217;-73
2023/01/13 07:22:19;;;;;;;4.10;3.80;;;2.90;99.90;;;;;;5060970;28;20823;-74
2023/01/13 07:24:46;;;;;;;4.30;4.00;;;2.90;99.90;;;;;;5057022;28;20234;-77
2023/01/13 07:27:13;;;;;;;3.90;3.70;;;2.90;99.90;;;;;;5061315;28;20224;-73
2023/01/13 07:29:40;;;;;;;3.97;3.78;;;2.90;99.90;;;;;;5062882;28;20218;-71
2023/01/13 07:32:07;;;;;;;4.30;4.00;;;3.00;99.90;;;;;;5063638;28;20204;-71
2023/01/13 07:34:36;;;;;;;3.70;3.50;;;3.00;99.90;;;;;;5054918;28;20222;-73
2023/01/13 07:37:05;;;;;;;4.10;3.80;;;3.00;99.90;;;;;;5059591;28;20206;-73
2023/01/13 07:39:32;;;;;;;4.13;3.90;;;3.00;99.90;;;;;;5059063;28;20229;-74
2023/01/13 07:44:43;;;;;;;4.47;4.07;;;3.00;99.90;;;;;;5059944;28;20286;-76
2023/01/13 07:47:10;;;;;;;4.32;4.13;;;3.10;99.90;;;;;;5058287;28;20808;-76
2023/01/13 07:49:37;;;;;;;4.30;3.90;;;3.10;99.90;;;;;;5060078;28;20225;-74
2023/01/13 07:52:06;;;;;;;3.95;3.65;;;3.10;99.90;;;;;;5057522;28;20222;-77
2023/01/13 07:54:33;;;;;;;4.40;4.10;;;3.10;99.90;;;;;;5055673;28;20268;-74
2023/01/13 07:57:00;;;;;;;4.47;4.18;;;3.20;99.90;;;;;;5056401;28;20893;-74
2023/01/13 07:59:27;;;;;;;4.25;3.95;;;3.30;99.90;;;;;;5057439;28;20205;-74
2023/01/13 08:01:54;;;;;;;4.60;4.30;;;3.30;99.90;;;;;;5053658;28;20244;-75
2023/01/13 08:04:21;;;;;;;3.90;3.70;;;3.30;99.90;;;;;;5058007;28;20218;-74
2023/01/13 08:06:48;;;;;;;4.20;3.92;;;3.30;99.90;;;;;;5058318;28;20209;-75
2023/01/13 08:09:16;;;;;;;4.70;4.40;;;3.40;99.90;;;;;;5056052;28;20703;-74
2023/01/13 08:11:43;;;;;;;4.70;4.30;;;3.40;99.90;;;;;;5058771;28;20229;-77
2023/01/13 08:14:11;;;;;;;5.22;4.82;;;3.40;99.90;;;;;;5053175;28;20917;-76
2023/01/13 08:16:38;;;;;;;5.18;4.78;;;3.50;99.90;;;;;;5058871;28;20229;-77
2023/01/13 08:19:05;;;;;;;4.53;4.22;;;3.50;99.90;;;;;;5055739;28;20201;-76
2023/01/13 08:21:32;;;;;;;5.25;4.85;;;3.60;99.90;;;;;;5054211;28;20218;-73
2023/01/13 08:23:59;;;;;;;4.60;4.30;;;3.60;99.90;;;;;;5053934;28;20823;-77
2023/01/13 08:26:27;;;;;;;4.70;4.40;;;3.70;99.90;;;;;;5060424;28;20221;-74
2023/01/13 08:28:54;;;;;;;5.35;4.90;;;3.80;99.90;;;;;;5063909;28;20919;-75
2023/01/13 08:31:21;;;;;;;4.55;4.25;;;3.90;99.90;;;;;;5059694;28;20260;-75
2023/01/13 08:33:48;;;;;;;5.15;4.75;;;4.00;99.90;;;;;;5056177;28;20957;-74
2023/01/13 08:36:17;;;;;;;6.38;5.82;;;4.10;99.90;;;;;;5055221;28;20305;-73
2023/01/13 08:38:44;;;;;;;5.60;5.10;;;4.10;99.90;;;;;;5059482;28;20228;-76
2023/01/13 08:41:13;;;;;;;5.97;5.47;;;4.10;99.90;;;;;;5053263;28;20659;-74
2023/01/13 08:43:41;;;;;;;6.03;5.43;;;4.10;99.90;;;;;;5060020;28;20202;-76
2023/01/13 08:46:08;;;;;;;7.47;6.78;;;4.20;99.90;;;;;;5060477;28;20221;-75
2023/01/13 08:48:35;;;;;;;7.57;6.88;;;4.20;99.90;;;;;;5057369;28;20194;-75
2023/01/13 08:51:04;;;;;;;7.35;6.65;;;4.20;99.90;;;;;;5058215;28;20221;-74
2023/01/13 08:53:31;;;;;;;7.55;6.85;;;4.10;99.90;;;;;;5061702;28;20206;-74
2023/01/13 08:55:59;;;;;;;7.72;7.13;;;4.20;99.90;;;;;;5063198;28;20218;-76
2023/01/13 08:58:26;;;;;;;6.70;6.10;;;4.20;99.90;;;;;;5059886;28;20214;-77
2023/01/13 09:00:54;;;;;;;7.60;6.70;;;4.20;99.90;;;;;;5057007;28;20215;-77
2023/01/13 09:03:21;;;;;;;7.03;6.43;;;4.20;99.90;;;;;;5062492;28;20206;-74
2023/01/13 09:05:48;;;;;;;6.63;6.10;;;4.20;99.90;;;;;;5059294;28;20262;-79
2023/01/13 09:08:15;;;;;;;9.60;8.70;;;4.30;99.90;;;;;;5060627;28;20217;-79
2023/01/13 09:10:42;;;;;;;10.90;9.80;;;4.30;99.90;;;;;;5063276;28;20222;-74
2023/01/13 09:13:12;;;;;;;9.27;8.38;;;4.40;99.90;;;;;;5061364;28;20716;-79
2023/01/13 09:15:40;;;;;;;9.05;8.15;;;4.50;99.90;;;;;;5057874;28;20283;-74
2023/01/13 09:18:08;;;;;;;7.95;7.15;;;4.40;99.90;;;;;;5062576;28;20217;-73
2023/01/13 09:20:36;;;;;;;7.80;7.05;;;4.40;99.90;;;;;;5061451;28;20214;-72
2023/01/13 09:23:04;;;;;;;7.35;6.75;;;4.40;99.90;;;;;;5058746;28;20367;-78
2023/01/13 09:25:31;;;;;;;8.32;7.63;;;4.40;99.90;;;;;;5064865;28;20233;-76
2023/01/13 09:27:58;;;;;;;8.15;7.35;;;4.40;99.90;;;;;;5062723;28;20190;-76
2023/01/13 09:30:26;;;;;;;7.40;6.70;;;4.50;99.90;;;;;;5062831;28;20225;-74
2023/01/13 09:34:58;;;;;;;6.60;5.65;;;4.40;99.90;;;;;;5061259;28;20293;-75
2023/01/13 09:35:40;;;;;;;6.47;5.88;;;4.40;99.90;;;;;;5062576;28;20715;-73
2023/01/13 09:38:07;;;;;;;5.95;5.45;;;4.40;99.90;;;;;;5055080;28;20774;-72
2023/01/13 09:40:37;;;;;;;6.50;6.00;;;4.50;99.90;;;;;;5049385;28;20257;-79
2023/01/13 09:46:04;;;;;;;7.10;6.50;;;4.60;99.90;;;;;;5060344;28;20643;-72
2023/01/13 09:48:50;;;;;;;8.25;6.90;;;4.60;99.90;;;;;;5057468;28;20794;-78
2023/01/13 09:51:27;;;;;;;6.80;6.13;;;4.60;99.90;;;;;;5062055;28;20213;-71
2023/01/13 09:54:00;;;;;;;7.00;6.30;;;4.60;99.90;;;;;;5059506;28;20287;-73
2023/01/13 09:56:27;;;;;;;6.25;5.70;;;4.60;99.90;;;;;;5063745;28;20926;-79
2023/01/13 09:58:54;;;;;;;7.25;6.50;;;4.60;99.90;;;;;;5061177;28;20666;-74
2023/01/13 10:01:28;;;;;;;7.45;6.80;;;4.50;99.90;;;;;;5062001;28;20222;-79
2023/01/13 10:03:55;;;;;;;7.57;6.18;;;4.40;99.90;;;;;;5063414;28;20229;-76
2023/01/13 10:06:30;;;;;;;6.57;6.07;;;4.30;99.90;;;;;;5060393;28;20229;-75
2023/01/13 10:08:58;;;;;;;7.35;6.65;;;4.30;99.90;;;;;;5062320;28;20199;-76
2023/01/13 10:14:19;;;;;;;7.10;6.50;;;4.40;99.90;;;;;;5059057;28;20672;-74
2023/01/13 10:16:51;;;;;;;6.03;5.53;;;4.60;99.90;;;;;;5061634;28;20195;-72
2023/01/13 10:19:21;;;;;;;6.25;5.75;;;4.70;99.90;;;;;;5061926;28;20199;-72
2023/01/13 10:22:20;;;;;;;7.30;6.63;;;4.70;99.90;;;;;;5061663;28;20264;-79
2023/01/13 10:25:03;;;;;;;8.52;7.72;;;4.70;99.90;;;;;;5060711;28;20218;-73
2023/01/13 10:27:34;;;;;;;8.15;7.35;;;4.70;99.90;;;;;;5060788;28;20214;-75
2023/01/13 10:30:11;;;;;;;8.02;6.10;;;4.70;99.90;;;;;;5060873;28;20252;-77
2023/01/13 10:32:40;;;;;;;7.90;7.10;;;4.80;99.90;;;;;;5058125;28;20199;-75
2023/01/13 10:35:08;;;;;;;9.73;8.63;;;4.80;99.90;;;;;;5060251;28;20712;-74
2023/01/13 10:37:37;;;;;;;9.40;8.43;;;4.90;99.90;;;;;;5060282;28;20721;-71
2023/01/13 10:40:06;;;;;;;9.43;7.97;;;4.90;99.90;;;;;;5057777;28;20217;-76
2023/01/13 10:42:33;;;;;;;7.90;7.20;;;5.00;99.90;;;;;;5061927;28;20205;-75
2023/01/13 10:45:02;;;;;;;8.23;7.43;;;5.10;99.90;;;;;;5063053;28;20706;-74
2023/01/13 10:47:32;;;;;;;7.38;6.68;;;5.20;99.90;;;;;;5062000;28;20201;-75
2023/01/13 10:50:19;;;;;;;8.13;7.20;;;5.30;99.90;;;;;;5053897;28;20222;-73
2023/01/13 10:53:00;;;;;;;7.75;7.05;;;5.40;99.90;;;;;;5061738;28;20708;-73
2023/01/13 10:55:30;;;;;;;9.15;7.90;;;5.50;99.90;;;;;;5059449;28;20214;-73
2023/01/13 10:58:11;;;;;;;9.77;8.77;;;5.60;99.90;;;;;;5059162;28;20853;-73
2023/01/13 11:00:38;;;;;;;8.80;7.90;;;5.70;99.90;;;;;;5061173;28;20221;-73
2023/01/13 11:03:21;;;;;;;8.07;7.28;;;5.70;99.90;;;;;;5061480;28;20202;-72
2023/01/13 11:05:52;;;;;;;8.25;7.45;;;5.60;99.90;;;;;;5055406;28;20222;-71
2023/01/13 11:08:23;;;;;;;7.32;6.65;;;5.40;99.90;;;;;;5062600;28;20613;-75
2023/01/13 11:10:53;;;;;;;6.65;6.05;;;5.30;99.90;;;;;;5061388;28;20210;-73
2023/01/13 11:13:26;;;;;;;6.47;5.97;;;5.20;99.90;;;;;;5060303;28;20202;-76
2023/01/13 11:16:00;;;;;;;6.70;6.20;;;5.20;99.90;;;;;;5058687;28;20221;-74
2023/01/13 11:18:39;;;;;;;6.45;5.90;;;5.20;99.90;;;;;;5053938;28;20222;-77
2023/01/13 11:21:14;;;;;;;6.57;6.03;;;5.30;99.90;;;;;;5064506;28;20222;-80
2023/01/13 11:23:47;;;;;;;5.70;5.13;;;5.30;99.90;;;;;;5060360;28;20205;-76
2023/01/13 11:26:20;;;;;;;6.57;5.88;;;5.20;99.90;;;;;;5062538;28;20640;-76
2023/01/13 11:28:53;;;;;;;6.63;6.03;;;5.10;99.90;;;;;;5057232;28;20195;-76
2023/01/13 11:31:25;;;;;;;6.20;5.70;;;5.10;99.90;;;;;;5053661;28;20562;-76
2023/01/13 11:33:57;;;;;;;6.53;6.03;;;5.30;99.90;;;;;;5060587;28;20225;-74
2023/01/13 11:36:28;;;;;;;7.32;6.63;;;5.40;99.90;;;;;;5059124;28;20261;-73
2023/01/13 11:39:03;;;;;;;6.72;6.13;;;5.40;99.90;;;;;;5057610;28;20884;-75
2023/01/13 11:41:43;;;;;;;7.18;6.22;;;5.40;99.90;;;;;;5059766;28;20274;-73
2023/01/13 11:44:20;;;;;;;7.28;6.57;;;5.40;99.90;;;;;;5050999;28;20241;-73
2023/01/13 11:46:49;;;;;;;7.35;6.65;;;5.40;99.90;;;;;;5056955;28;20198;-72
2023/01/13 11:49:26;;;;;;;7.70;6.10;;;5.50;99.90;;;;;;5055487;28;20290;-72
2023/01/13 11:52:00;;;;;;;7.30;6.60;;;5.60;99.90;;;;;;5054094;28;20694;-73
2023/01/13 11:54:55;;;;;;;7.40;6.70;;;5.70;99.90;;;;;;5048870;28;20241;-72
2023/01/13 11:57:49;;;;;;;7.85;7.10;;;5.80;99.90;;;;;;5053496;28;20210;-73
2023/01/13 12:00:45;;;;;;;8.02;7.22;;;5.90;99.90;;;;;;5053847;28;20222;-73
2023/01/13 12:03:26;;;;;;;8.07;7.28;;;5.90;99.90;;;;;;5037670;28;20203;-73
2023/01/13 12:06:08;;;;;;;7.32;6.47;;;5.90;99.90;;;;;;5054750;28;20225;-73
2023/01/13 12:08:55;;;;;;;7.70;6.95;;;6.00;99.90;;;;;;5059545;28;20487;-72
2023/01/13 12:11:31;;;;;;;7.72;6.80;;;6.20;99.90;;;;;;5052271;28;20223;-73
2023/01/13 12:14:13;;;;;;;6.95;6.25;;;6.40;99.90;;;;;;5053487;28;20405;-73
2023/01/13 12:16:49;;;;;;;6.40;5.80;;;6.70;99.90;;;;;;5055613;28;20226;-75
2023/01/13 12:19:24;;;;;;;7.57;6.85;;;7.10;99.90;;;;;;5070197;28;20218;-76
2023/01/13 12:22:12;;;;;;;7.88;7.18;;;7.50;99.90;;;;;;5058207;28;20222;-74
2023/01/13 12:24:49;;;;;;;8.50;7.68;;;7.80;99.90;;;;;;5059051;28;20226;-73
2023/01/13 12:27:24;;;;;;;7.70;7.00;;;8.00;99.90;;;;;;5055910;28;20198;-74
2023/01/13 12:29:57;;;;;;;8.23;7.40;;;8.20;99.90;;;;;;5063732;28;20614;-73
2023/01/13 12:32:33;;;;;;;8.00;7.18;;;8.40;99.90;;;;;;5053171;28;20199;-74
2023/01/13 12:35:23;;;;;;;8.50;7.00;;;8.70;99.90;;;;;;5058316;28;20226;-74
2023/01/13 12:37:58;;;;;;;7.35;6.65;;;8.70;99.90;;;;;;5060168;28;20202;-74
2023/01/13 12:40:37;;;;;;;7.88;7.07;;;8.90;99.90;;;;;;5060841;28;20255;-74
2023/01/13 12:46:35;;;;;;;8.02;7.13;;;9.30;99.90;;;;;;5060062;28;20793;-74
2023/01/13 12:49:19;;;;;;;8.32;7.63;;;9.40;99.90;;;;;;5059752;28;20213;-74
2023/01/13 12:52:12;;;;;;;7.05;6.35;;;9.50;99.90;;;;;;5057706;28;20635;-73
2023/01/13 12:55:15;;;;;;;9.63;7.28;;;9.60;99.90;;;;;;5055172;28;20689;-73
2023/01/13 12:57:59;;;;;;;7.85;7.07;;;9.70;99.90;;;;;;5064617;28;20207;-74
2023/01/13 13:00:37;;;;;;;8.20;7.15;;;9.80;99.90;;;;;;5059032;28;20232;-73
2023/01/13 13:03:28;;;;;;;6.75;6.15;;;9.90;99.90;;;;;;5052685;28;20209;-76
2023/01/13 13:06:09;;;;;;;7.40;6.43;;;9.90;99.90;;;;;;5066310;28;20570;-76
2023/01/13 13:08:59;;;;;;;9.27;6.57;;;9.70;99.90;;;;;;5065921;28;20198;-77
2023/01/13 13:15:01;;;;;;;7.40;6.68;;;9.30;99.90;;;;;;5057238;28;20719;-73
2023/01/13 13:18:19;;;;;;;6.68;6.07;;;9.40;99.90;;;;;;5063374;28;20210;-75
2023/01/13 13:20:58;;;;;;;8.48;6.70;;;9.30;99.90;;;;;;5058765;28;20612;-74
2023/01/13 13:24:02;;;;;;;7.50;6.75;;;9.40;99.90;;;;;;5061991;28;20194;-75
2023/01/13 13:26:47;;;;;;;6.82;6.13;;;9.40;99.90;;;;;;5062158;28;20748;-73
2023/01/13 13:29:30;;;;;;;7.45;6.72;;;9.30;99.90;;;;;;5058456;28;20190;-76
2023/01/13 13:32:46;;;;;;;7.15;6.43;;;9.50;99.90;;;;;;5056274;28;20198;-74
2023/01/13 13:35:39;;;;;;;7.18;5.85;;;9.50;99.90;;;;;;5060951;28;20218;-74
2023/01/13 13:46:49;;;;;;;7.13;6.43;;;9.20;99.90;;;;;;5058573;28;20226;-74
2023/01/13 13:49:18;;;;;;;7.07;6.38;;;9.20;99.90;;;;;;5061084;28;20194;-74
2023/01/13 13:51:53;;;;;;;6.80;6.13;;;9.10;99.90;;;;;;5062245;28;20202;-75
2023/01/13 13:54:22;;;;;;;7.28;6.50;;;9.20;99.90;;;;;;5059332;28;20642;-75
2023/01/13 13:56:50;;;;;;;8.20;6.65;;;9.20;99.90;;;;;;5059836;28;20197;-75
2023/01/13 13:59:23;;;;;;;6.05;5.55;;;9.10;99.90;;;;;;5059613;28;20229;-78
2023/01/13 14:02:00;;;;;;;7.38;6.43;;;9.30;99.90;;;;;;5056420;28;20191;-73
2023/01/13 14:04:29;;;;;;;7.68;6.28;;;9.30;99.90;;;;;;5057992;28;20229;-74
2023/01/13 14:07:00;;;;;;;7.13;6.30;;;9.30;99.90;;;;;;5062970;28;20736;-75
2023/01/13 14:09:29;;;;;;;6.07;5.57;;;9.10;99.90;;;;;;5060870;28;20589;-73
2023/01/13 14:12:02;;;;;;;5.65;5.07;;;8.80;99.90;;;;;;5057453;28;20222;-73
2023/01/13 14:14:30;;;;;;;6.68;6.07;;;8.30;99.90;;;;;;5063071;28;20237;-74
2023/01/13 14:16:57;;;;;;;5.60;5.05;;;8.00;99.90;;;;;;5062752;28;20225;-73
2023/01/13 14:19:33;;;;;;;5.65;5.15;;;7.90;99.90;;;;;;5058372;28;20314;-77
2023/01/13 14:22:03;;;;;;;5.75;5.22;;;7.80;99.90;;;;;;5063124;28;20567;-74